createdAt,value
2018-04-17T00:00:46.888Z,9.80
2018-04-17T00:03:16.118Z,10.00
2018-04-17T00:05:45.369Z,9.70
2018-04-17T00:08:14.032Z,9.70
2018-04-17T00:10:42.625Z,9.60
2018-04-17T00:13:11.114Z,9.50
2018-04-17T00:15:39.401Z,9.60
2018-04-17T00:18:07.893Z,9.60
2018-04-17T00:20:36.393Z,9.60
2018-04-17T00:23:04.593Z,9.60
2018-04-17T00:25:33.835Z,9.40
2018-04-17T00:28:03.192Z,9.50
2018-04-17T00:30:32.126Z,9.70
2018-04-17T00:33:00.678Z,9.70
2018-04-17T00:35:29.146Z,9.60
2018-04-17T00:37:58.408Z,9.50
2018-04-17T00:40:26.883Z,9.50
2018-04-17T00:42:55.349Z,9.50
2018-04-17T00:45:23.833Z,9.50
2018-04-17T00:47:52.310Z,9.40
2018-04-17T00:50:20.877Z,9.30
2018-04-17T00:52:49.360Z,9.10
2018-04-17T00:55:17.977Z,8.90
2018-04-17T00:57:46.613Z,8.80
2018-04-17T01:00:15.657Z,9.00
2018-04-17T01:02:44.141Z,9.00
2018-04-17T01:05:12.637Z,8.90
2018-04-17T01:07:41.112Z,8.90
2018-04-17T01:10:09.582Z,8.90
2018-04-17T01:12:38.073Z,8.80
2018-04-17T01:15:06.677Z,8.70
2018-04-17T01:17:35.160Z,8.60
2018-04-17T01:20:03.305Z,8.60
2018-04-17T01:22:31.792Z,8.50
2018-04-17T01:25:00.249Z,8.70
2018-04-17T01:27:28.887Z,8.70
2018-04-17T01:29:57.401Z,8.60
2018-04-17T01:32:26.755Z,8.30
2018-04-17T01:34:55.261Z,8.30
2018-04-17T01:37:23.727Z,8.30
2018-04-17T01:39:53.019Z,8.00
2018-04-17T01:42:21.649Z,8.00
2018-04-17T01:44:50.892Z,8.20
2018-04-17T01:47:19.409Z,8.20
2018-04-17T01:49:49.409Z,8.20
2018-04-17T01:52:17.897Z,8.20
2018-04-17T01:54:46.366Z,8.30
2018-04-17T01:57:15.700Z,8.30
2018-04-17T01:59:44.337Z,8.30
2018-04-17T02:02:13.021Z,8.30
2018-04-17T02:04:41.509Z,8.20
2018-04-17T02:07:10.004Z,8.10
2018-04-17T02:09:38.475Z,8.00
2018-04-17T02:12:07.017Z,8.10
2018-04-17T02:14:36.262Z,7.90
2018-04-17T02:17:06.333Z,7.90
2018-04-17T02:19:34.810Z,7.90
2018-04-17T02:22:03.317Z,8.00
2018-04-17T02:24:32.549Z,8.00
2018-04-17T02:27:01.041Z,7.90
2018-04-17T02:29:29.632Z,7.80
2018-04-17T02:31:58.194Z,7.80
2018-04-17T02:34:26.669Z,7.80
2018-04-17T02:36:55.385Z,7.80
2018-04-17T02:39:23.947Z,7.80
2018-04-17T02:41:52.429Z,7.50
2018-04-17T02:44:20.966Z,7.40
2018-04-17T02:46:49.444Z,7.40
2018-04-17T02:49:17.930Z,7.50
2018-04-17T02:51:46.414Z,7.60
2018-04-17T02:54:14.965Z,7.60
2018-04-17T02:56:43.444Z,7.40
2018-04-17T02:59:11.936Z,7.50
2018-04-17T03:01:40.422Z,7.60
2018-04-17T03:04:08.902Z,7.40
2018-04-17T03:06:37.402Z,7.20
2018-04-17T03:09:07.473Z,7.30
2018-04-17T03:11:39.189Z,7.40
2018-04-17T03:14:07.701Z,7.40
2018-04-17T03:16:36.309Z,7.50
2018-04-17T03:19:04.785Z,7.60
2018-04-17T03:21:33.264Z,7.30
2018-04-17T03:24:01.877Z,7.20
2018-04-17T03:26:30.365Z,7.10
2018-04-17T03:28:58.940Z,7.20
2018-04-17T03:31:27.529Z,7.20
2018-04-17T03:33:56.096Z,7.10
2018-04-17T03:36:24.577Z,7.00
2018-04-17T03:38:53.048Z,7.20
2018-04-17T03:41:22.284Z,7.20
2018-04-17T03:43:50.768Z,7.10
2018-04-17T03:46:20.046Z,6.90
2018-04-17T03:48:48.637Z,6.80
2018-04-17T03:51:17.115Z,7.00
2018-04-17T03:53:45.709Z,7.10
2018-04-17T03:56:14.192Z,7.20
2018-04-17T03:58:42.670Z,7.20
2018-04-17T04:01:11.149Z,7.20
2018-04-17T04:03:39.632Z,7.10
2018-04-17T04:06:08.093Z,7.10
2018-04-17T04:08:37.356Z,7.10
2018-04-17T04:11:05.849Z,7.00
2018-04-17T04:13:34.313Z,7.10
2018-04-17T04:16:02.873Z,7.00
2018-04-17T04:18:42.574Z,7.00
2018-04-17T04:21:23.081Z,6.70
2018-04-17T04:24:16.453Z,6.70
2018-04-17T04:26:44.936Z,6.70
2018-04-17T04:29:13.413Z,6.80
2018-04-17T04:31:42.034Z,6.80
2018-04-17T04:34:10.553Z,6.60
2018-04-17T04:36:39.059Z,6.50
2018-04-17T04:39:07.553Z,6.40
2018-04-17T04:41:36.038Z,6.60
2018-04-17T04:44:04.673Z,6.80
2018-04-17T04:46:33.911Z,6.80
2018-04-17T04:49:02.407Z,6.80
2018-04-17T04:51:30.882Z,6.70
2018-04-17T04:53:59.419Z,6.70
2018-04-17T04:56:28.668Z,6.70
2018-04-17T04:58:57.168Z,6.60
2018-04-17T05:01:25.650Z,6.70
2018-04-17T05:03:54.161Z,6.80
2018-04-17T05:06:22.637Z,6.70
2018-04-17T05:08:51.133Z,6.70
2018-04-17T05:11:19.796Z,6.90
2018-04-17T05:13:48.083Z,7.10
2018-04-17T05:16:16.454Z,7.20
2018-04-17T05:18:45.018Z,7.20
2018-04-17T05:21:13.507Z,7.20
2018-04-17T05:23:41.752Z,7.30
2018-04-17T05:26:10.249Z,7.40
2018-04-17T05:28:38.749Z,7.60
2018-04-17T05:31:07.328Z,7.70
2018-04-17T05:33:35.805Z,7.80
2018-04-17T05:36:04.297Z,7.80
2018-04-17T05:38:32.793Z,8.00
2018-04-17T05:41:01.352Z,8.00
2018-04-17T05:43:29.825Z,8.10
2018-04-17T05:45:58.366Z,8.20
2018-04-17T05:48:28.376Z,8.30
2018-04-17T05:50:56.905Z,8.30
2018-04-17T05:53:25.385Z,8.50
2018-04-17T05:55:54.841Z,8.80
2018-04-17T05:58:23.597Z,8.80
2018-04-17T06:00:52.065Z,8.90
2018-04-17T06:03:20.549Z,9.10
2018-04-17T06:05:49.039Z,9.20
2018-04-17T06:08:17.577Z,9.20
2018-04-17T06:10:47.653Z,9.50
2018-04-17T06:13:16.138Z,9.50
2018-04-17T06:15:44.773Z,9.70
2018-04-17T06:18:13.296Z,9.80
2018-04-17T06:20:41.549Z,10.00
2018-04-17T06:23:10.802Z,10.30
2018-04-17T06:25:39.414Z,10.20
2018-04-17T06:28:07.874Z,10.40
2018-04-17T06:30:36.440Z,10.50
2018-04-17T06:33:05.017Z,10.70
2018-04-17T06:35:33.509Z,10.80
2018-04-17T06:38:01.977Z,10.90
2018-04-17T06:40:30.458Z,11.00
2018-04-17T06:42:59.872Z,11.40
2018-04-17T06:45:28.361Z,11.30
2018-04-17T06:47:56.956Z,11.50
2018-04-17T06:50:25.505Z,11.50
2018-04-17T06:52:54.015Z,11.60
2018-04-17T06:55:23.425Z,11.90
2018-04-17T06:57:51.688Z,11.90
2018-04-17T07:00:20.262Z,12.00
2018-04-17T07:02:48.823Z,11.90
2018-04-17T07:05:18.094Z,12.20
2018-04-17T07:07:46.773Z,12.20
2018-04-17T07:10:15.241Z,12.20
2018-04-17T07:12:43.730Z,12.20
2018-04-17T07:15:12.217Z,12.30
2018-04-17T07:17:40.701Z,12.50
2018-04-17T07:20:09.195Z,13.10
2018-04-17T07:22:37.717Z,13.10
2018-04-17T07:25:05.891Z,12.90
2018-04-17T07:27:35.154Z,13.20
2018-04-17T07:30:03.800Z,13.30
2018-04-17T07:32:32.264Z,13.30
2018-04-17T07:35:00.760Z,13.40
2018-04-17T07:37:29.330Z,13.60
2018-04-17T07:39:57.827Z,13.60
2018-04-17T07:42:26.294Z,13.70
2018-04-17T07:44:54.797Z,14.00
2018-04-17T07:47:32.146Z,13.90
2018-04-17T07:50:01.409Z,14.20
2018-04-17T07:52:29.902Z,14.20
2018-04-17T07:54:59.161Z,14.20
2018-04-17T07:57:28.553Z,14.10
2018-04-17T07:59:58.074Z,14.00
2018-04-17T08:02:27.101Z,14.30
2018-04-17T08:04:56.944Z,14.70
2018-04-17T08:07:25.992Z,14.60
2018-04-17T08:09:54.537Z,14.50
2018-04-17T08:12:23.841Z,15.10
2018-04-17T08:14:53.105Z,14.70
2018-04-17T08:17:21.661Z,14.70
2018-04-17T08:19:50.142Z,15.20
2018-04-17T08:22:18.829Z,15.10
2018-04-17T08:24:47.309Z,15.00
2018-04-17T08:27:15.792Z,15.30
2018-04-17T08:29:44.262Z,15.50
2018-04-17T08:32:12.738Z,15.60
2018-04-17T08:34:41.292Z,15.30
2018-04-17T08:37:09.853Z,15.70
2018-04-17T08:39:38.397Z,15.80
2018-04-17T08:42:06.913Z,15.70
2018-04-17T08:44:35.377Z,15.80
2018-04-17T08:47:03.919Z,15.90
2018-04-17T08:49:33.180Z,16.20
2018-04-17T08:52:01.686Z,16.10
2018-04-17T08:54:30.300Z,16.20
2018-04-17T08:56:58.981Z,16.20
2018-04-17T08:59:28.307Z,16.00
2018-04-17T09:01:57.506Z,15.80
2018-04-17T09:04:26.093Z,15.80
2018-04-17T09:06:54.578Z,16.10
2018-04-17T09:09:23.073Z,16.30
2018-04-17T09:11:51.601Z,16.40
2018-04-17T09:14:20.233Z,16.40
2018-04-17T09:16:48.756Z,16.40
2018-04-17T09:19:17.257Z,16.50
2018-04-17T09:21:45.737Z,16.70
2018-04-17T09:24:14.990Z,16.70
2018-04-17T09:26:43.656Z,16.70
2018-04-17T09:29:12.202Z,16.80
2018-04-17T09:31:42.326Z,17.10
2018-04-17T09:34:12.332Z,17.10
2018-04-17T09:36:40.812Z,17.10
2018-04-17T09:39:09.373Z,17.30
2018-04-17T09:41:37.862Z,17.10
2018-04-17T09:44:06.341Z,17.40
2018-04-17T09:46:34.831Z,17.40
2018-04-17T09:49:03.317Z,17.50
2018-04-17T09:51:31.882Z,17.60
2018-04-17T09:54:00.575Z,17.40
2018-04-17T09:56:29.063Z,17.70
2018-04-17T09:58:57.576Z,17.60
2018-04-17T10:01:26.215Z,17.80
2018-04-17T13:38:12.744Z,17.60
2018-04-17T13:40:42.007Z,24.00
2018-04-17T13:43:10.584Z,23.90
2018-04-17T13:45:39.078Z,23.40
2018-04-17T13:48:07.589Z,24.00
2018-04-17T13:50:36.833Z,24.30
2018-04-17T18:49:40.366Z,24.30
2018-04-17T18:52:08.872Z,17.90
2018-04-17T18:54:37.717Z,17.70
2018-04-17T18:57:06.980Z,17.50
2018-04-17T18:59:35.470Z,17.40
2018-04-17T19:02:03.651Z,17.60
2018-04-17T19:04:32.213Z,17.50
2018-04-17T19:07:00.489Z,17.40
2018-04-17T19:09:28.981Z,17.40
2018-04-17T19:11:57.601Z,17.50
2018-04-17T19:14:26.900Z,17.50
2018-04-17T19:16:56.154Z,17.50
2018-04-17T19:19:24.639Z,17.40
2018-04-17T19:21:53.142Z,17.40
2018-04-17T19:24:21.684Z,17.30
2018-04-17T19:26:50.270Z,17.10
2018-04-17T19:29:18.776Z,17.00
2018-04-17T19:31:47.259Z,16.80
2018-04-17T19:34:15.782Z,16.80
2018-04-17T19:36:45.184Z,16.60
2018-04-17T19:39:13.911Z,16.50
2018-04-17T19:41:42.497Z,16.50
2018-04-17T19:44:11.081Z,16.30
2018-04-17T19:46:39.625Z,16.20
2018-04-17T19:49:08.121Z,16.10
2018-04-17T19:51:37.442Z,15.80
2018-04-17T19:54:05.932Z,15.70
2018-04-17T19:56:34.429Z,15.70
2018-04-17T19:59:02.950Z,15.60
2018-04-17T20:01:31.449Z,15.50
2018-04-17T20:04:00.749Z,15.10
2018-04-17T20:06:30.014Z,15.00
2018-04-17T20:08:58.572Z,15.00
2018-04-17T20:11:27.251Z,14.90
2018-04-17T20:13:55.820Z,14.70
2018-04-17T20:16:25.089Z,14.70
2018-04-17T20:18:54.447Z,14.60
2018-04-17T20:21:22.940Z,14.60
2018-04-17T20:23:51.689Z,14.50
2018-04-17T20:26:20.996Z,14.30
2018-04-17T20:28:49.663Z,14.30
2018-04-17T20:31:18.936Z,13.70
2018-04-17T20:33:47.433Z,13.60
2018-04-17T20:36:15.998Z,13.70
2018-04-17T20:38:44.609Z,13.70
2018-04-17T20:41:13.085Z,13.80
2018-04-17T20:43:41.319Z,13.70
2018-04-17T20:46:09.624Z,13.80
2018-04-17T20:48:38.040Z,13.70
2018-04-17T20:51:07.062Z,13.80
2018-04-17T20:53:35.430Z,13.70
2018-04-17T20:56:04.420Z,13.80
2018-04-17T20:58:33.440Z,13.80
2018-04-17T21:01:01.973Z,13.70
2018-04-17T21:03:30.235Z,13.50
2018-04-17T21:05:58.494Z,12.90
2018-04-17T21:08:26.755Z,12.60
2018-04-17T21:10:55.029Z,12.60
2018-04-17T21:13:23.337Z,12.50
2018-04-17T21:15:51.601Z,12.50
2018-04-17T21:18:20.181Z,12.80
2018-04-17T21:20:48.558Z,13.00
2018-04-17T21:23:17.238Z,13.20
2018-04-17T21:25:45.480Z,13.20
2018-04-17T21:28:13.974Z,12.70
2018-04-17T21:30:43.225Z,12.50
2018-04-17T21:33:11.714Z,12.40
2018-04-17T21:35:40.266Z,12.60
2018-04-17T21:38:08.752Z,12.80
2018-04-17T21:40:37.266Z,12.70
2018-04-17T21:43:05.754Z,12.60
2018-04-17T21:45:34.251Z,12.30
2018-04-17T21:48:02.854Z,12.30
2018-04-17T21:50:32.112Z,12.30
2018-04-17T21:53:00.672Z,12.20
2018-04-17T21:55:29.236Z,12.40
2018-04-17T21:57:58.722Z,12.40
2018-04-17T22:00:27.372Z,12.30
2018-04-17T22:02:55.853Z,12.30
2018-04-17T22:05:24.358Z,12.20
2018-04-17T22:07:53.002Z,12.10
2018-04-17T22:10:21.497Z,12.10
2018-04-17T22:12:49.980Z,12.00
2018-04-17T22:15:18.473Z,12.00
2018-04-17T22:17:47.075Z,12.00
2018-04-17T22:20:15.342Z,12.00
2018-04-17T22:22:43.583Z,11.90
2018-04-17T22:25:11.846Z,11.90
2018-04-17T22:27:40.442Z,11.70
2018-04-17T22:30:08.922Z,11.70
2018-04-17T22:32:37.486Z,11.70
2018-04-17T22:35:06.729Z,11.70
2018-04-17T22:37:35.005Z,11.60
2018-04-17T22:40:03.494Z,11.60
2018-04-17T22:42:31.745Z,11.60
2018-04-17T22:44:59.984Z,11.50
2018-04-17T22:47:28.262Z,11.40
2018-04-17T22:49:56.506Z,11.30
2018-04-17T22:52:24.777Z,11.30
2018-04-17T22:54:53.013Z,11.30
2018-04-17T22:57:22.046Z,11.00
2018-04-17T22:59:50.340Z,11.00
2018-04-17T23:02:18.818Z,11.00
2018-04-17T23:04:47.314Z,11.00
2018-04-17T23:07:15.850Z,11.00
2018-04-17T23:09:44.367Z,11.00
2018-04-17T23:12:12.840Z,11.00
2018-04-17T23:14:41.339Z,11.00
2018-04-17T23:17:09.861Z,10.80
2018-04-17T23:19:39.134Z,10.80
2018-04-17T23:22:07.806Z,10.70
2018-04-17T23:24:36.305Z,10.70
2018-04-17T23:27:04.800Z,10.80
2018-04-17T23:29:34.097Z,10.70
2018-04-17T23:32:02.653Z,10.70
2018-04-17T23:34:31.149Z,10.80
2018-04-17T23:36:59.769Z,10.70
2018-04-17T23:39:29.009Z,10.70
2018-04-17T23:41:57.522Z,10.60
2018-04-17T23:44:26.009Z,10.50
2018-04-17T23:46:54.262Z,10.50
